Latest Coastal Weather Observations for Yanakie

IDV60701

Issued at 3:51 pm EST Tuesday 31 May 2016 (issued every 10 minutes, with the page automatically refreshed every 10 minutes)

About coastal observations | Map of coastal stations | Coastal observations for VIC | Marine services | Other Formats
Station Details ID: 085301 Name: YANAKIE Lat: -38.81 Lon: 146.19 Height: 13.3 m
Data from the previous 72 hours. | See also: Recent months at Yanakie
Date/Time
EST
Temp

°C
Wind Pressure Rain
since 9am
mm
Weather Cloud Vis
km
Sea
Height
m
Swell
Dir
 
Speed
knots
Gust
knots
hPa Trend Height
m
Period
s
Dir
31/03:30pm 14.4 ENE 10 15 1028.7 - 0.0 - - - - - - -
31/03:00pm 14.7 ENE 11 16 1028.7 - 0.0 - - - - - - -
31/02:30pm 14.6 ENE 10 15 1028.7 - 0.0 - - - - - - -
31/02:00pm 15.4 ENE 10 17 1028.9 - 0.0 - - - - - - -
31/01:30pm 15.3 ENE 11 15 1029.2 - 0.0 - - - - - - -
31/01:00pm 14.9 ENE 10 15 1029.5 - 0.0 - - - - - - -
31/12:30pm 14.7 ENE 10 15 1029.7 - 0.0 - - - - - - -
31/12:00pm 14.3 ENE 8 12 1030.2 - 0.0 - - - - - - -
31/11:30am 13.7 ENE 9 12 1030.6 - 0.0 - - - - - - -
31/11:00am 13.5 ENE 7 10 1031.0 - 0.0 - - - - - - -
31/10:30am 12.8 ENE 7 10 1031.3 - 0.0 - - - - - - -
31/10:00am 13.0 NE 7 10 1031.4 - 0.0 - - - - - - -
31/09:30am 12.2 ENE 6 9 1031.2 - 0.0 - - - - - - -
31/09:00am 11.2 NE 6 9 1031.1 - 0.2 - - - - - - -
31/08:30am 10.7 NE 4 6 1030.9 - 0.2 - - - - - - -
31/08:00am 10.4 ENE 5 7 1030.7 - 0.2 - - - - - - -
31/07:30am 10.1 NE 5 8 1030.4 - 0.2 - - - - - - -
31/07:00am 10.2 NE 7 9 1030.1 - 0.0 - - - - - - -
31/06:30am 10.1 ENE 6 9 1029.8 - 0.0 - - - - - - -
31/06:00am 10.6 ENE 8 11 1029.5 - 0.0 - - - - - - -
31/05:30am 10.4 ENE 8 12 1029.3 - 0.0 - - - - - - -
31/05:00am 10.1 ENE 6 9 1029.2 - 0.0 - - - - - - -
31/04:30am 9.9 ENE 5 8 1029.1 - 0.0 - - - - - - -
31/04:00am 10.1 ENE 6 10 1029.0 - 0.0 - - - - - - -
31/03:30am 10.0 ENE 4 7 1029.1 - 0.0 - - - - - - -
31/03:00am 9.9 NE 5 7 1029.1 - 0.0 - - - - - - -
31/02:30am 9.8 ENE 4 6 1029.2 - 0.0 - - - - - - -
31/02:00am 9.2 ENE 3 5 1029.1 - 0.0 - - - - - - -
31/01:30am 8.3 NNE 2 3 1029.1 - 0.0 - - - - - - -
31/01:00am 9.7 ENE 4 5 1029.1 - 0.0 - - - - - - -
31/12:30am 9.7 ENE 4 6 1029.2 - 0.0 - - - - - - -
31/12:00am 9.4 ENE 4 6 1029.3 - 0.0 - - - - - - -
 
Date/Time
EST
Temp

°C
Wind Pressure Rain
since 9am
mm
Weather Cloud Vis
km
Sea
Height
m
Swell
Dir
 
Speed
knots
Gust
knots
hPa Trend Height
m
Period
s
Dir
30/11:30pm 8.8 ENE 3 5 1029.2 - 0.0 - - - - - - -
30/11:00pm 6.7 E 1 2 1029.2 - 0.0 - - - - - - -
30/10:30pm 7.5 CALM 0 0 1029.1 - 0.0 - - - - - - -
30/10:00pm 9.7 NE 3 5 1028.8 - 0.0 - - - - - - -
30/09:30pm 9.4 ENE 4 5 1028.7 - 0.0 - - - - - - -
30/09:00pm 9.1 ENE 3 5 1028.6 - 0.0 - - - - - - -
30/08:30pm 9.1 ENE 3 4 1028.5 - 0.0 - - - - - - -
30/08:00pm 9.3 ENE 3 3 1028.6 - 0.0 - - - - - - -
30/07:30pm 9.4 ENE 2 3 1028.5 - 0.0 - - - - - - -
30/07:00pm 10.0 E 3 5 1028.2 - 0.0 - - - - - - -
30/06:30pm 10.2 E 3 4 1028.0 - 0.0 - - - - - - -
30/06:00pm 10.3 ESE 3 4 1027.8 - 0.0 - - - - - - -
30/05:30pm 10.8 ESE 3 5 1027.4 - 0.0 - - - - - - -
30/05:00pm 11.4 ESE 3 6 1027.1 - 0.0 - - - - - - -
30/04:30pm 12.6 E 3 4 1027.0 - 0.0 - - - - - - -
30/04:00pm 13.5 E 3 5 1026.7 - 0.0 - - - - - - -
30/03:30pm 13.5 E 4 6 1026.6 - 0.0 - - - - - - -
30/03:00pm 13.7 S 4 5 1026.5 - 0.0 - - - - - - -
30/02:30pm 13.4 S 6 8 1026.4 - 0.0 - - - - - - -
30/02:00pm 13.3 SSW 2 4 1026.4 - 0.0 - - - - - - -
30/01:30pm 13.9 SSW 5 7 1026.5 - 0.0 - - - - - - -
30/01:00pm 13.8 SSW 4 7 1026.5 - 0.0 - - - - - - -
30/12:30pm 13.6 SSW 5 8 1026.7 - 0.0 - - - - - - -
30/12:00pm 13.1 S 5 8 1026.8 - 0.0 - - - - - - -
30/11:30am 13.3 S 5 8 1027.0 - 0.0 - - - - - - -
30/11:00am 13.4 SW 3 5 1027.2 - 0.0 - - - - - - -
30/10:30am 13.2 W 2 3 1027.3 - 0.0 - - - - - - -
30/10:00am 12.3 WNW 3 3 1027.1 - 0.0 - - - - - - -
30/09:30am 11.4 W 2 3 1026.8 - 0.0 - - - - - - -
30/09:00am 9.6 CALM 0 0 1026.6 - 0.0 - - - - - - -
30/08:30am 7.0 CALM 0 0 1026.5 - 0.0 - - - - - - -
30/08:00am 5.3 NW 1 2 1026.1 - 0.0 - - - - - - -
30/07:30am 4.7 NW 2 2 1025.7 - 0.0 - - - - - - -
30/07:00am 4.5 NW 2 2 1025.5 - 0.0 - - - - - - -
30/06:30am 5.2 WNW 1 2 1025.2 - 0.0 - - - - - - -
30/06:00am 4.9 WNW 1 3 1024.8 - 0.0 - - - - - - -
30/05:30am 5.4 WNW 2 2 1024.6 - 0.0 - - - - - - -
30/05:00am 6.0 WNW 2 3 1024.3 - 0.0 - - - - - - -
30/04:30am 6.1 WNW 2 3 1024.1 - 0.0 - - - - - - -
30/04:00am 6.0 W 2 3 1023.8 - 0.0 - - - - - - -
30/03:30am 6.0 WNW 2 3 1023.7 - 0.0 - - - - - - -
30/03:00am 6.9 W 2 3 1023.6 - 0.0 - - - - - - -
30/02:30am 6.4 WNW 3 4 1023.5 - 0.0 - - - - - - -
30/02:00am 7.8 W 4 5 1023.2 - 0.0 - - - - - - -
30/01:30am 9.3 WSW 7 8 1023.0 - 0.0 - - - - - - -
30/01:00am 9.0 W 2 3 1022.9 - 0.0 - - - - - - -
30/12:30am 8.9 WSW 3 4 1022.9 - 0.0 - - - - - - -
30/12:00am 8.1 W 4 5 1022.8 - 0.0 - - - - - - -
 
Date/Time
EST
Temp

°C
Wind Pressure Rain
since 9am
mm
Weather Cloud Vis
km
Sea
Height
m
Swell
Dir
 
Speed
knots
Gust
knots
hPa Trend Height
m
Period
s
Dir
29/11:30pm 8.7 WNW 4 6 1022.7 - 0.0 - - - - - - -
29/11:00pm 9.6 WSW 6 8 1022.6 - 0.0 - - - - - - -
29/10:30pm 10.3 SW 7 10 1022.5 - 0.0 - - - - - - -
29/10:00pm 10.0 SW 5 7 1022.4 - 0.0 - - - - - - -
29/09:30pm 10.4 SW 9 11 1022.2 - 0.0 - - - - - - -
29/09:00pm 11.2 SW 9 14 1022.2 - 0.0 - - - - - - -
29/08:30pm 10.9 SW 8 12 1022.0 - 0.0 - - - - - - -
29/08:00pm 10.7 W 6 8 1021.7 - 0.0 - - - - - - -
29/07:30pm 10.9 W 6 10 1021.3 - 0.0 - - - - - - -
29/07:00pm 11.1 WSW 10 13 1020.9 - 0.0 - - - - - - -
29/06:30pm 11.3 SW 13 17 1020.6 - 0.0 - - - - - - -
29/06:00pm 11.2 W 10 14 1020.2 - 0.0 - - - - - - -
29/05:30pm 11.3 W 10 13 1019.9 - 0.0 - - - - - - -
29/05:00pm 11.9 WSW 11 15 1019.8 - 0.0 - - - - - - -
29/04:30pm 12.1 WSW 11 16 1019.6 - 0.0 - - - - - - -
29/04:00pm 12.4 W 13 18 1019.3 - 0.0 - - - - - - -
29/03:30pm 12.6 W 15 20 1019.1 - 0.0 - - - - - - -
29/03:00pm 12.6 W 12 16 1018.8 - 0.0 - - - - - - -
29/02:30pm 13.7 WSW 13 18 1018.7 - 0.0 - - - - - - -
29/02:00pm 14.0 WSW 16 23 1018.4 - 0.0 - - - - - - -
29/01:30pm 13.4 WSW 17 21 1018.2 - 0.0 - - - - - - -
29/01:00pm 14.3 WSW 14 18 1018.1 - 0.0 - - - - - - -
29/12:30pm 13.9 W 17 21 1018.1 - 0.0 - - - - - - -
29/12:00pm 13.5 WSW 16 22 1018.1 - 0.0 - - - - - - -
29/11:30am 14.3 WSW 16 21 1018.1 - 0.0 - - - - - - -
29/11:00am 13.4 WSW 16 22 1018.1 - 0.0 - - - - - - -
29/10:30am 13.4 W 12 16 1018.1 - 0.0 - - - - - - -
29/10:00am 12.8 WSW 13 18 1017.8 - 0.0 - - - - - - -
29/09:30am 12.2 W 13 17 1017.5 - 0.0 - - - - - - -
29/09:00am 10.7 W 11 13 1017.2 - 4.8 Recent precip. - - - - - -
29/08:30am 10.7 WSW 11 15 1017.1 - 4.4 - - - - - - -
29/08:00am 10.9 SW 13 18 1016.8 - 3.4 - - - - - - -
29/07:30am 10.2 SW 17 23 1016.6 - 2.8 - - - - - - -
29/07:00am 11.2 WSW 15 21 1016.1 - 2.6 - - - - - - -
29/06:30am 11.6 WSW 14 20 1015.8 - 2.0 - - - - - - -
29/06:00am 11.9 WSW 16 23 1015.4 - 2.0 - - - - - - -
29/05:30am 11.7 WSW 15 20 1015.2 - 2.0 - - - - - - -
29/05:00am 11.6 WSW 14 21 1014.9 - 2.0 - - - - - - -
29/04:30am 10.7 W 11 14 1014.7 - 1.6 - - - - - - -
29/04:00am 10.6 W 12 16 1014.4 - 1.6 - - - - - - -
29/03:30am 10.9 WSW 16 22 1014.4 - 1.6 - - - - - - -
29/03:00am 10.6 W 12 16 1014.3 - 1.2 - - - - - - -
29/02:30am 10.8 W 12 15 1014.1 - 1.2 - - - - - - -
29/02:00am 10.4 W 11 16 1014.0 - 1.2 - - - - - - -
29/01:30am 11.0 WSW 17 22 1013.8 - 1.0 - - - - - - -
29/01:00am 10.9 WSW 15 21 1013.7 - 1.0 - - - - - - -
29/12:30am 11.3 WSW 16 24 1013.5 - 1.0 - - - - - - -
29/12:00am 10.7 W 13 18 1013.6 - 1.0 Recent precip. - - - - - -
 
Date/Time
EST
Temp

°C
Wind Pressure Rain
since 9am
mm
Weather Cloud Vis
km
Sea
Height
m
Swell
Dir
 
Speed
knots
Gust
knots
hPa Trend Height
m
Period
s
Dir
28/11:30pm 10.7 W 14 23 1013.5 - 1.0 - - - - - - -
28/11:00pm 10.5 W 12 14 1013.6 - 0.4 - - - - - - -
28/10:30pm 10.8 W 15 20 1013.5 - 0.4 - - - - - - -
28/10:00pm 10.5 W 11 14 1013.5 - 0.2 - - - - - - -
28/09:30pm 10.7 W 12 16 1013.5 - 0.0 - - - - - - -
28/09:00pm 10.4 W 14 18 1013.4 - 0.0 - - - - - - -
28/08:30pm 10.7 WSW 16 22 1013.2 - 0.0 - - - - - - -
28/08:00pm 10.6 W 12 15 1012.9 - 0.0 - - - - - - -
28/07:30pm 11.7 WSW 15 21 1012.6 - 0.0 - - - - - - -
28/07:00pm 11.3 WSW 15 21 1012.4 - 0.0 - - - - - - -
28/06:53pm 11.4 WSW 17 27 1012.4 - 0.0 - - - - - - -
28/06:30pm 11.4 WSW 18 25 1012.2 - 0.0 - - - - - - -
28/06:00pm 11.5 WSW 16 23 1011.9 - 0.0 - - - - - - -
28/05:30pm 12.0 WSW 18 24 1011.5 - 0.0 - - - - - - -
28/05:00pm 12.3 SW 13 18 1011.2 - 0.0 - - - - - - -
28/04:30pm 12.3 SW 14 19 1011.0 - 0.0 - - - - - - -
28/04:00pm 11.1 W 9 11 1010.8 - 0.0 - - - - - - -

Other Formats:

Comma delimited format used in spreadsheet applications
http://www.bom.gov.au/fwo/IDV60701/IDV60701.94911.axf

JavaScript Object Notation format (JSON) in row-major order
http://www.bom.gov.au/fwo/IDV60701/IDV60701.94911.json